OTBD/DOH METAR and TAF weather

Enter ICAO airport designator
Station Type Date Time Source
OTBD METAR 2020/01/17 22:30 UTC NOAA

OTBD 172230Z AUTO 12003KT CAVOK 17/14 Q1018 NOSIG


Station Type Date Time Source
OTBD Decoded METAR 2020/01/17 22:30 UTC NOAA

Doha International Airport, Qatar (OTBD) 25-15N 051-34E 10M
Jan 17, 2020 - 05:30 PM EST / 2020.01.17 2230 UTC
Wind: from the ESE (120 degrees) at 3 MPH (3 KT):0
Visibility: greater than 7 mile(s):0
Temperature: 62 F (17 C)
Dew Point: 57 F (14 C)
Relative Humidity: 82%
Pressure (altimeter): 30.06 in. Hg (1018 hPa)
ob: OTBD 172230Z AUTO 12003KT CAVOK 17/14 Q1018 NOSIG
cycle: 22

Station Type Date Time Source
OTBD TAF 2020/01/17 18:03 UTC NOAA

TAF TAF OTBD 171700Z 1718/1824 14006KT 8000 NSC
TEMPO 1721/1807 VRB03KT 4000 HZ

Example: see airport list